Time;durP1;ratioP1;P1;durP2;ratioP2;P2;SDS_P1;SDS_P2;PMS_P1;PMS_P2;Temp;Humidity;BMP_temperature;BMP_pressure;BME280_temperature;BME280_humidity;BME280_pressure;Samples;Min_cycle;Max_cycle;Signal;HPM_P1;HPM_P2
2021/07/29 00:01:06;;;;;;;8.32;4.63;;;15.30;99.90;;;;;;5022190;28;20041;-85
2021/07/29 00:03:32;;;;;;;9.02;4.47;;;15.30;99.90;;;;;;5012207;28;20037;-84
2021/07/29 00:06:01;;;;;;;9.40;4.47;;;15.20;99.90;;;;;;5028620;28;20092;-86
2021/07/29 00:08:27;;;;;;;8.32;4.50;;;15.20;99.90;;;;;;5009469;28;20147;-83
2021/07/29 00:10:53;;;;;;;8.30;4.53;;;15.10;99.90;;;;;;5018807;28;20281;-86
2021/07/29 00:13:20;;;;;;;5.93;4.60;;;15.10;99.90;;;;;;5005617;28;20052;-85
2021/07/29 00:15:46;;;;;;;9.23;4.80;;;15.10;99.90;;;;;;5019557;28;20044;-82
2021/07/29 00:20:42;;;;;;;10.65;4.50;;;15.10;99.90;;;;;;5035354;28;20067;-85
2021/07/29 00:23:08;;;;;;;8.85;4.78;;;15.10;99.90;;;;;;4992070;28;20041;-85
2021/07/29 00:25:34;;;;;;;8.65;4.53;;;15.00;99.90;;;;;;5038266;28;20043;-85
2021/07/29 00:28:00;;;;;;;6.38;4.45;;;15.00;99.90;;;;;;4993305;28;20042;-84
2021/07/29 00:30:30;;;;;;;7.15;4.70;;;15.00;99.90;;;;;;5022617;28;20083;-85
2021/07/29 00:32:56;;;;;;;8.98;4.90;;;14.90;99.90;;;;;;5009626;28;20113;-84
2021/07/29 00:35:23;;;;;;;7.85;4.55;;;14.90;99.90;;;;;;5049549;28;20037;-84
2021/07/29 00:37:52;;;;;;;7.32;4.00;;;14.90;99.90;;;;;;5025076;28;20025;-84
2021/07/29 00:40:19;;;;;;;10.52;4.50;;;14.90;99.90;;;;;;5034867;28;20040;-86
2021/07/29 00:42:45;;;;;;;7.22;4.53;;;14.90;99.90;;;;;;5023232;28;20064;-87
2021/07/29 00:45:21;;;;;;;11.93;4.82;;;14.90;99.90;;;;;;5023396;28;20037;-87
2021/07/29 00:47:55;;;;;;;10.40;4.40;;;14.80;99.90;;;;;;5019866;28;20041;-86
2021/07/29 00:50:24;;;;;;;7.80;4.35;;;14.80;99.90;;;;;;5006654;28;20349;-85
2021/07/29 00:52:53;;;;;;;;;;;14.80;99.90;;;;;;4982035;28;20045;-85
2021/07/29 00:55:52;;;;;;;;;;;;;;;;;;;;;
2021/07/29 00:58:25;;;;;;;10.23;4.38;;;14.80;99.90;;;;;;5030757;28;20047;-85
2021/07/29 01:00:51;;;;;;;8.45;4.75;;;14.80;99.90;;;;;;5040537;28;20446;-86
2021/07/29 01:03:17;;;;;;;10.52;4.38;;;14.80;99.90;;;;;;4989980;28;20049;-85
2021/07/29 01:05:43;;;;;;;7.70;4.55;;;14.80;99.90;;;;;;5033288;28;20037;-86
2021/07/29 01:08:15;;;;;;;6.93;4.47;;;14.80;99.90;;;;;;5012708;28;20097;-86
2021/07/29 01:10:41;;;;;;;9.15;5.00;;;14.80;99.90;;;;;;5018880;28;20121;-86
2021/07/29 01:13:07;;;;;;;11.55;4.57;;;14.80;99.90;;;;;;5025466;28;20045;-86
2021/07/29 01:15:36;;;;;;;7.78;4.22;;;14.80;99.90;;;;;;5001047;28;20045;-86
2021/07/29 01:18:04;;;;;;;9.30;4.63;;;14.80;99.90;;;;;;4997370;28;20051;-86
2021/07/29 01:20:31;;;;;;;9.77;4.63;;;14.70;99.90;;;;;;5015888;28;20026;-86
2021/07/29 01:23:00;;;;;;;9.48;4.70;;;14.80;99.90;;;;;;5018945;28;20488;-85
2021/07/29 01:25:26;;;;;;;10.68;4.20;;;14.70;99.90;;;;;;5011138;28;20037;-86
2021/07/29 01:27:51;;;;;;;11.82;4.05;;;14.80;99.90;;;;;;5005297;28;20492;-85
2021/07/29 01:30:17;;;;;;;10.43;4.28;;;14.70;99.90;;;;;;5002842;28;20466;-82
2021/07/29 01:32:43;;;;;;;10.30;4.40;;;14.80;99.90;;;;;;5002114;28;20064;-85
2021/07/29 01:35:10;;;;;;;8.57;4.25;;;14.80;99.90;;;;;;5017280;28;20048;-82
2021/07/29 01:37:45;;;;;;;11.43;4.30;;;14.80;99.90;;;;;;5007332;28;20065;-85
2021/07/29 01:40:12;;;;;;;10.32;4.32;;;14.80;99.90;;;;;;5009652;28;20029;-84
2021/07/29 01:42:38;;;;;;;8.45;3.90;;;14.80;99.90;;;;;;5029499;28;20021;-85
2021/07/29 01:45:07;;;;;;;9.30;4.22;;;14.70;99.90;;;;;;5031663;28;20037;-81
2021/07/29 01:47:33;;;;;;;10.63;4.57;;;14.70;99.90;;;;;;5018974;28;20156;-85
2021/07/29 01:49:59;;;;;;;12.55;4.90;;;14.80;99.90;;;;;;4999765;28;20034;-84
2021/07/29 01:52:25;;;;;;;10.98;4.25;;;14.80;99.90;;;;;;4997206;28;20046;-84
2021/07/29 01:54:51;;;;;;;10.57;4.38;;;14.80;99.90;;;;;;5010811;28;20194;-84
2021/07/29 01:57:17;;;;;;;8.38;4.28;;;14.70;99.90;;;;;;5019341;28;20053;-84
2021/07/29 01:59:43;;;;;;;11.48;4.20;;;14.70;99.90;;;;;;4997879;28;20028;-81
2021/07/29 02:02:09;;;;;;;7.72;4.00;;;14.70;99.90;;;;;;5016310;28;20029;-85
2021/07/29 02:04:35;;;;;;;10.00;4.38;;;14.70;99.90;;;;;;5010716;28;20060;-85
2021/07/29 02:07:02;;;;;;;12.13;4.35;;;14.70;99.90;;;;;;5013305;28;20052;-85
2021/07/29 02:09:29;;;;;;;10.77;4.45;;;14.70;99.90;;;;;;5033251;28;20046;-85
2021/07/29 02:12:01;;;;;;;6.80;4.40;;;14.80;99.90;;;;;;5016753;28;20072;-85
2021/07/29 02:14:42;;;;;;;8.35;4.18;;;14.70;99.90;;;;;;5022261;28;20036;-84
2021/07/29 02:17:08;;;;;;;11.50;4.30;;;14.70;99.90;;;;;;5008925;28;20034;-81
2021/07/29 02:19:34;;;;;;;9.90;4.10;;;14.70;99.90;;;;;;4985873;28;20523;-84
2021/07/29 02:22:00;;;;;;;9.95;4.20;;;14.80;99.90;;;;;;5003440;28;20052;-85
2021/07/29 02:24:26;;;;;;;14.00;4.88;;;14.70;99.90;;;;;;5004290;28;20113;-84
2021/07/29 02:26:51;;;;;;;9.85;4.78;;;14.80;99.90;;;;;;4996945;28;20033;-87
2021/07/29 02:29:20;;;;;;;10.02;4.20;;;14.80;99.90;;;;;;4998324;28;20041;-85
2021/07/29 02:31:53;;;;;;;7.57;4.47;;;14.80;99.90;;;;;;5002152;28;20040;-83
2021/07/29 02:34:19;;;;;;;8.25;4.40;;;14.70;99.90;;;;;;5016628;28;20029;-84
2021/07/29 02:36:45;;;;;;;10.75;4.32;;;14.70;99.90;;;;;;4982884;28;20402;-82
2021/07/29 02:39:11;;;;;;;8.70;4.18;;;14.80;99.90;;;;;;5032412;28;20038;-84
2021/07/29 02:41:40;;;;;;;10.90;3.95;;;14.80;99.90;;;;;;5015298;28;20522;-85
2021/07/29 02:44:06;;;;;;;9.52;3.70;;;14.70;99.90;;;;;;4995019;28;20113;-84
2021/07/29 02:46:32;;;;;;;10.45;4.28;;;14.80;99.90;;;;;;5001242;28;20064;-83
2021/07/29 02:48:58;;;;;;;8.00;2.85;;;14.70;99.90;;;;;;5004468;28;20357;-84
2021/07/29 02:51:23;;;;;;;3.42;1.65;;;14.70;99.90;;;;;;4993204;28;20037;-84
2021/07/29 02:53:49;;;;;;;2.85;1.30;;;14.60;99.30;;;;;;5002712;28;20708;-83
2021/07/29 02:56:15;;;;;;;3.67;0.93;;;14.50;98.90;;;;;;5020384;28;20037;-84
2021/07/29 02:58:41;;;;;;;2.03;0.90;;;14.40;98.80;;;;;;5032146;28;20399;-84
2021/07/29 03:01:07;;;;;;;5.68;1.17;;;14.20;98.70;;;;;;5003912;28;20135;-86
2021/07/29 03:03:33;;;;;;;2.03;0.80;;;14.00;98.80;;;;;;4998060;28;20154;-85
2021/07/29 03:05:59;;;;;;;2.25;0.95;;;13.90;98.80;;;;;;4991407;28;20041;-86
2021/07/29 03:08:27;;;;;;;3.08;1.10;;;13.70;99.00;;;;;;5002487;28;20040;-85
2021/07/29 03:10:58;;;;;;;3.17;0.90;;;13.60;99.20;;;;;;4966867;28;20042;-87
2021/07/29 03:13:30;;;;;;;2.83;1.20;;;13.50;99.40;;;;;;4987335;28;20049;-85
2021/07/29 03:15:56;;;;;;;3.67;1.23;;;13.40;99.50;;;;;;4982430;28;20046;-87
2021/07/29 03:18:23;;;;;;;3.47;1.10;;;13.40;99.60;;;;;;4997618;28;20121;-86
2021/07/29 03:20:51;;;;;;;2.10;1.15;;;13.40;99.80;;;;;;5015638;28;20120;-84
2021/07/29 03:23:19;;;;;;;2.78;1.33;;;13.30;99.90;;;;;;4984298;28;20029;-84
2021/07/29 03:25:49;;;;;;;6.72;1.50;;;13.30;99.90;;;;;;4985396;28;20523;-86
2021/07/29 03:28:16;;;;;;;4.90;1.80;;;13.30;99.90;;;;;;5012289;28;20569;-84
2021/07/29 03:30:46;;;;;;;6.07;2.08;;;13.30;99.90;;;;;;5016723;28;20068;-84
2021/07/29 03:33:12;;;;;;;3.63;2.05;;;13.30;99.90;;;;;;5012572;28;20060;-85
2021/07/29 03:35:40;;;;;;;6.70;2.55;;;13.30;99.90;;;;;;5022169;28;20029;-84
2021/07/29 03:38:07;;;;;;;7.55;3.25;;;13.30;99.90;;;;;;4996717;28;20033;-87
2021/07/29 03:40:35;;;;;;;4.60;2.53;;;13.40;99.90;;;;;;4995473;28;20045;-84
2021/07/29 03:43:07;;;;;;;6.65;2.70;;;13.40;99.90;;;;;;5009216;28;20053;-85
2021/07/29 03:45:56;;;;;;;7.88;2.67;;;13.40;99.90;;;;;;5025853;28;20041;-85
2021/07/29 03:48:25;;;;;;;7.40;2.53;;;13.40;99.90;;;;;;4984035;28;20049;-86
2021/07/29 03:50:54;;;;;;;6.47;2.80;;;13.40;99.90;;;;;;4997966;28;20041;-84
2021/07/29 03:53:24;;;;;;;5.82;2.63;;;13.40;99.90;;;;;;5017359;28;20064;-86
2021/07/29 03:56:07;;;;;;;8.13;2.78;;;13.50;99.90;;;;;;5011509;28;20037;-86
2021/07/29 03:58:36;;;;;;;5.55;2.50;;;13.40;99.90;;;;;;4998351;28;20072;-85
2021/07/29 04:01:02;;;;;;;5.93;2.42;;;13.40;99.90;;;;;;5026952;28;20068;-86
2021/07/29 04:03:31;;;;;;;5.95;2.95;;;13.40;99.90;;;;;;4998749;28;20038;-87
2021/07/29 04:06:06;;;;;;;4.45;2.40;;;13.40;99.90;;;;;;4980977;28;20033;-85
2021/07/29 04:08:41;;;;;;;4.82;2.90;;;13.40;99.90;;;;;;4999246;28;20064;-85
2021/07/29 04:11:07;;;;;;;9.20;3.10;;;13.40;99.90;;;;;;5013528;28;20045;-86
2021/07/29 04:13:47;;;;;;;7.18;3.45;;;13.40;99.90;;;;;;5010687;28;20041;-85
2021/07/29 04:17:01;;;;;;;7.38;3.60;;;13.40;99.90;;;;;;4956099;28;20668;-85
2021/07/29 04:19:46;;;;;;;8.85;4.00;;;13.40;99.90;;;;;;4957788;28;20093;-85
2021/07/29 04:22:33;;;;;;;9.35;3.92;;;13.40;99.90;;;;;;4958781;28;20332;-86
2021/07/29 04:25:03;;;;;;;8.63;3.73;;;13.40;99.90;;;;;;4947973;28;20055;-87
2021/07/29 04:27:29;;;;;;;11.63;4.20;;;13.40;99.90;;;;;;4981236;28;20356;-85
2021/07/29 04:29:55;;;;;;;7.10;3.67;;;13.40;99.90;;;;;;5032156;28;20088;-89
2021/07/29 04:32:21;;;;;;;8.80;3.80;;;13.40;99.90;;;;;;4980557;28;20051;-88
2021/07/29 04:34:49;;;;;;;10.15;4.43;;;13.50;99.90;;;;;;5000046;28;20411;-86
2021/07/29 04:37:16;;;;;;;6.75;3.65;;;13.50;99.90;;;;;;4983269;28;20145;-87
2021/07/29 04:39:44;;;;;;;9.43;3.85;;;13.50;99.90;;;;;;4985048;28;20045;-88
2021/07/29 04:42:56;;;;;;;;;;;;;;;;;;;;;
2021/07/29 04:45:34;;;;;;;8.45;4.20;;;13.50;99.90;;;;;;4979444;28;20068;-87
2021/07/29 04:48:23;;;;;;;8.90;3.67;;;13.60;99.90;;;;;;5012985;28;20439;-88
2021/07/29 04:50:52;;;;;;;10.20;3.45;;;13.70;99.90;;;;;;4985577;28;20118;-85
2021/07/29 04:53:20;;;;;;;7.70;4.22;;;13.70;99.90;;;;;;5005059;28;20053;-86
2021/07/29 04:55:46;;;;;;;8.27;4.00;;;13.70;99.90;;;;;;5003213;28;20060;-85
2021/07/29 04:58:12;;;;;;;10.48;4.28;;;13.70;99.90;;;;;;5015116;28;20040;-86
2021/07/29 05:01:05;;;;;;;10.90;4.40;;;13.70;99.90;;;;;;4996423;28;20040;-85
2021/07/29 05:04:01;;;;;;;12.93;4.43;;;13.70;99.90;;;;;;5021744;28;20063;-84
2021/07/29 05:06:36;;;;;;;10.70;4.45;;;13.70;99.90;;;;;;5009425;28;20122;-83
2021/07/29 05:09:02;;;;;;;10.32;3.90;;;13.70;99.90;;;;;;5005427;28;20041;-83
2021/07/29 05:11:39;;;;;;;11.23;4.65;;;13.80;99.90;;;;;;5023627;28;20272;-86
2021/07/29 05:14:06;;;;;;;14.88;4.55;;;13.90;99.90;;;;;;5029304;28;20044;-85
2021/07/29 05:16:47;;;;;;;7.07;4.60;;;13.80;99.90;;;;;;5016722;28;20544;-83
2021/07/29 05:19:13;;;;;;;11.65;4.32;;;13.90;99.90;;;;;;5014186;28;20053;-85
2021/07/29 05:21:40;;;;;;;13.75;4.10;;;13.90;99.90;;;;;;4997332;28;20442;-87
2021/07/29 05:24:09;;;;;;;11.27;3.85;;;14.00;99.90;;;;;;5009429;28;20029;-84
2021/07/29 05:26:35;;;;;;;11.20;4.53;;;14.00;99.90;;;;;;5016251;28;20069;-84
2021/07/29 05:29:01;;;;;;;11.93;4.30;;;14.10;99.90;;;;;;5028903;28;20033;-81
2021/07/29 05:31:27;;;;;;;13.38;4.50;;;14.10;99.90;;;;;;5002462;28;20764;-83
2021/07/29 05:33:53;;;;;;;14.23;4.00;;;14.10;99.90;;;;;;5009471;28;20068;-82
2021/07/29 05:36:19;;;;;;;10.25;4.13;;;14.20;99.90;;;;;;5015990;28;20148;-84
2021/07/29 05:38:51;;;;;;;11.77;4.00;;;14.20;99.90;;;;;;5012585;28;20067;-85
2021/07/29 05:41:16;;;;;;;10.75;3.65;;;14.30;99.90;;;;;;5020853;28;20032;-82
2021/07/29 05:43:42;;;;;;;12.30;3.60;;;14.30;99.90;;;;;;5017376;28;20038;-82
2021/07/29 05:46:12;;;;;;;12.75;3.60;;;14.40;99.90;;;;;;5008548;28;20040;-87
2021/07/29 05:48:41;;;;;;;12.02;3.53;;;14.40;99.90;;;;;;5033364;28;20049;-82
2021/07/29 05:51:07;;;;;;;11.10;3.60;;;14.40;99.90;;;;;;5018087;28;20037;-83
2021/07/29 05:53:33;;;;;;;11.20;3.90;;;14.50;99.90;;;;;;5020115;28;20092;-84
2021/07/29 05:56:00;;;;;;;9.95;3.30;;;14.60;99.90;;;;;;5025908;28;20033;-83
2021/07/29 05:58:29;;;;;;;12.88;3.65;;;14.60;99.90;;;;;;5017765;28;20040;-84
2021/07/29 06:00:55;;;;;;;12.27;3.85;;;14.60;99.90;;;;;;5007595;28;20037;-86
2021/07/29 06:03:21;;;;;;;10.65;3.60;;;14.70;99.90;;;;;;5031574;28;20036;-86
2021/07/29 06:05:46;;;;;;;10.32;3.42;;;14.70;99.90;;;;;;5008731;28;20045;-88
2021/07/29 06:08:12;;;;;;;12.35;3.53;;;14.80;99.90;;;;;;5019196;28;20057;-87
2021/07/29 06:10:39;;;;;;;8.60;3.33;;;14.80;99.90;;;;;;5015385;28;20029;-86
2021/07/29 06:13:06;;;;;;;15.63;3.45;;;14.90;99.90;;;;;;5041302;28;20030;-82
2021/07/29 06:15:32;;;;;;;11.00;3.60;;;14.90;99.90;;;;;;5050330;28;20053;-86
2021/07/29 06:18:00;;;;;;;11.95;3.53;;;15.00;99.90;;;;;;5036190;28;20503;-85
2021/07/29 06:20:27;;;;;;;17.48;3.88;;;15.00;99.90;;;;;;4995163;28;20051;-86
2021/07/29 06:22:53;;;;;;;13.38;3.00;;;15.10;99.90;;;;;;5033717;28;20037;-86
2021/07/29 06:25:19;;;;;;;12.48;3.58;;;15.10;99.90;;;;;;5024577;28;20348;-85
2021/07/29 06:27:49;;;;;;;14.70;3.70;;;15.20;99.90;;;;;;5039766;28;20033;-86
2021/07/29 06:30:18;;;;;;;11.27;3.17;;;15.20;99.90;;;;;;5022418;28;20025;-85
2021/07/29 06:32:45;;;;;;;12.43;3.08;;;15.30;99.90;;;;;;5029603;28;20036;-85
2021/07/29 06:35:11;;;;;;;11.90;3.22;;;15.30;99.90;;;;;;4997670;28;20037;-85
2021/07/29 06:37:37;;;;;;;11.75;3.13;;;15.40;99.90;;;;;;5019186;28;20036;-85
2021/07/29 06:40:04;;;;;;;12.48;3.80;;;15.50;99.70;;;;;;5007824;28;20442;-86
2021/07/29 06:42:30;;;;;;;12.15;3.42;;;15.50;99.50;;;;;;5021268;28;20048;-86
2021/07/29 06:44:56;;;;;;;14.88;3.28;;;15.60;99.50;;;;;;4992196;28;20037;-89
2021/07/29 06:47:23;;;;;;;13.52;3.22;;;15.60;99.50;;;;;;5008000;28;20045;-85
2021/07/29 06:49:50;;;;;;;16.08;3.70;;;15.70;99.50;;;;;;5020300;28;20033;-85
2021/07/29 06:52:16;;;;;;;17.48;4.25;;;15.80;99.30;;;;;;5037862;28;20048;-86
2021/07/29 06:54:42;;;;;;;14.65;3.80;;;15.90;99.20;;;;;;5028071;28;20112;-86
2021/07/29 06:57:09;;;;;;;17.33;3.47;;;15.90;99.00;;;;;;5049749;28;20063;-86
2021/07/29 06:59:35;;;;;;;16.00;3.53;;;15.90;99.10;;;;;;5016776;28;20093;-87
2021/07/29 07:02:01;;;;;;;10.82;3.13;;;16.00;99.20;;;;;;5037618;28;20033;-84
2021/07/29 07:04:29;;;;;;;15.27;3.22;;;16.00;98.90;;;;;;5037607;28;20065;-86
2021/07/29 07:06:55;;;;;;;17.73;4.03;;;16.10;98.90;;;;;;5045713;28;20025;-86
2021/07/29 07:09:21;;;;;;;15.30;3.65;;;16.10;98.90;;;;;;5017898;28;20148;-87
2021/07/29 07:11:47;;;;;;;12.30;3.53;;;16.00;98.90;;;;;;5003554;28;20037;-86
2021/07/29 07:14:13;;;;;;;12.43;3.45;;;16.10;98.90;;;;;;5015645;28;20033;-86
2021/07/29 07:16:39;;;;;;;13.82;3.05;;;16.10;98.80;;;;;;4968554;28;20039;-86
2021/07/29 07:19:05;;;;;;;12.05;3.72;;;16.20;98.80;;;;;;5033102;28;20017;-86
2021/07/29 07:21:32;;;;;;;15.50;3.55;;;16.30;98.80;;;;;;5024276;28;20041;-83
2021/07/29 07:23:58;;;;;;;15.60;4.05;;;16.40;98.50;;;;;;5023077;28;20091;-82
2021/07/29 07:26:28;;;;;;;17.77;3.22;;;16.40;98.20;;;;;;5016953;28;20075;-82
2021/07/29 07:28:54;;;;;;;17.40;3.45;;;16.40;97.90;;;;;;5023212;28;20124;-81
2021/07/29 07:31:20;;;;;;;12.50;3.55;;;16.40;97.80;;;;;;5036233;28;20103;-81
2021/07/29 07:33:47;;;;;;;13.68;3.55;;;16.50;97.80;;;;;;5014969;28;20053;-81
2021/07/29 07:36:16;;;;;;;12.93;3.55;;;16.50;97.20;;;;;;5031872;28;20080;-80
2021/07/29 07:38:42;;;;;;;14.40;3.08;;;16.60;97.00;;;;;;4991915;28;20033;-81
2021/07/29 07:41:08;;;;;;;12.93;3.20;;;16.70;96.90;;;;;;5001776;28;20539;-81
2021/07/29 07:43:35;;;;;;;12.73;3.05;;;16.80;96.60;;;;;;5041837;28;20045;-80
2021/07/29 07:46:02;;;;;;;15.48;3.17;;;16.80;96.40;;;;;;5033898;28;20052;-82
2021/07/29 07:48:29;;;;;;;10.13;2.33;;;16.90;96.20;;;;;;5019899;28;20460;-81
2021/07/29 07:50:55;;;;;;;9.70;2.55;;;16.90;95.60;;;;;;5022125;28;20036;-81
2021/07/29 07:53:26;;;;;;;11.32;2.83;;;16.90;95.70;;;;;;5034101;28;20048;-79
2021/07/29 07:55:52;;;;;;;8.38;2.40;;;16.90;95.40;;;;;;5019484;28;20036;-80
2021/07/29 07:58:18;;;;;;;9.50;2.67;;;16.70;95.00;;;;;;5005639;28;20040;-79
2021/07/29 08:00:44;;;;;;;9.85;2.58;;;16.80;95.50;;;;;;5019459;28;20091;-82
2021/07/29 08:03:11;;;;;;;10.65;2.35;;;16.80;95.50;;;;;;5011825;28;20057;-82
2021/07/29 08:05:38;;;;;;;7.72;2.30;;;16.90;95.30;;;;;;4991531;28;20083;-82
2021/07/29 08:08:07;;;;;;;10.40;2.70;;;17.00;95.00;;;;;;4990168;28;20495;-80
2021/07/29 08:10:37;;;;;;;17.17;3.50;;;17.00;95.10;;;;;;5028343;28;20037;-80
2021/07/29 08:13:04;;;;;;;10.35;2.90;;;17.10;94.80;;;;;;5034776;28;20056;-81
2021/07/29 08:15:31;;;;;;;12.38;3.35;;;17.10;95.20;;;;;;5030711;28;20041;-82
2021/07/29 08:17:57;;;;;;;13.25;2.97;;;17.20;95.10;;;;;;5040405;28;20082;-82
2021/07/29 08:20:24;;;;;;;13.85;2.97;;;17.20;94.70;;;;;;5043857;28;20049;-85
2021/07/29 08:22:54;;;;;;;11.90;3.25;;;17.10;94.50;;;;;;5040328;28;20033;-84
2021/07/29 08:25:21;;;;;;;9.88;3.22;;;17.20;95.00;;;;;;5022021;28;20061;-85
2021/07/29 08:27:51;;;;;;;16.38;3.30;;;17.30;94.90;;;;;;5026571;28;20475;-84
2021/07/29 08:30:19;;;;;;;11.05;3.10;;;17.30;94.50;;;;;;5037664;28;20041;-81
2021/07/29 08:32:45;;;;;;;11.38;3.00;;;17.30;94.20;;;;;;5027736;28;20094;-82
2021/07/29 08:35:12;;;;;;;12.65;2.95;;;17.30;94.50;;;;;;5031095;28;20030;-81
2021/07/29 08:37:44;;;;;;;15.45;3.13;;;17.30;94.40;;;;;;4978268;28;20042;-81
2021/07/29 08:40:11;;;;;;;10.18;3.28;;;17.40;94.50;;;;;;5018696;28;20045;-80
2021/07/29 08:42:37;;;;;;;16.70;3.30;;;17.50;94.00;;;;;;5029727;28;20041;-82
2021/07/29 08:45:04;;;;;;;15.48;3.28;;;17.50;94.10;;;;;;5005092;28;20037;-82
2021/07/29 08:47:33;;;;;;;14.38;3.13;;;17.60;93.80;;;;;;5010325;28;20064;-83
2021/07/29 08:50:06;;;;;;;12.35;2.80;;;17.60;93.50;;;;;;5020859;28;20491;-81
2021/07/29 08:52:32;;;;;;;10.25;3.38;;;17.70;93.20;;;;;;5037371;28;20044;-80
2021/07/29 08:54:59;;;;;;;10.23;3.10;;;17.80;92.90;;;;;;5033381;28;20484;-81
2021/07/29 08:57:31;;;;;;;8.90;2.58;;;17.90;92.90;;;;;;5016465;28;20057;-82
2021/07/29 09:00:00;;;;;;;9.43;2.50;;;17.90;92.10;;;;;;5012291;28;20041;-80
2021/07/29 09:02:27;;;;;;;10.00;2.70;;;17.90;92.40;;;;;;5030881;28;20546;-82
2021/07/29 09:05:10;;;;;;;7.05;2.55;;;17.90;92.10;;;;;;5024145;28;20041;-83
2021/07/29 09:07:36;;;;;;;13.60;3.00;;;17.90;90.90;;;;;;5017232;28;20041;-83
2021/07/29 09:10:04;;;;;;;7.13;2.25;;;17.90;91.30;;;;;;5021566;28;20040;-82
2021/07/29 09:12:30;;;;;;;7.03;2.40;;;18.00;89.30;;;;;;5044383;28;20040;-84
2021/07/29 09:14:56;;;;;;;9.30;2.40;;;18.00;88.00;;;;;;4987466;28;20025;-83
2021/07/29 09:17:24;;;;;;;9.25;2.88;;;18.10;88.20;;;;;;5019475;28;20043;-84
2021/07/29 09:19:53;;;;;;;7.72;2.25;;;18.00;89.10;;;;;;5002326;28;20475;-84
2021/07/29 09:22:27;;;;;;;9.88;3.00;;;18.00;89.50;;;;;;5016439;28;20037;-83
2021/07/29 09:25:08;;;;;;;12.50;2.67;;;18.10;90.00;;;;;;5034120;28;20053;-84
2021/07/29 09:27:37;;;;;;;10.57;2.70;;;18.10;90.30;;;;;;5025874;28;20095;-83
2021/07/29 09:30:25;;;;;;;10.90;3.05;;;18.30;90.10;;;;;;5027041;28;20053;-84
2021/07/29 09:33:04;;;;;;;9.77;2.40;;;18.40;88.80;;;;;;5019638;28;20036;-85
2021/07/29 09:35:50;;;;;;;10.27;2.92;;;18.40;86.50;;;;;;5020007;28;20278;-86
2021/07/29 09:38:31;;;;;;;9.43;2.72;;;18.40;86.40;;;;;;5029266;28;20108;-84
2021/07/29 09:41:01;;;;;;;11.10;2.55;;;18.40;86.20;;;;;;5023489;28;20633;-85
2021/07/29 09:43:31;;;;;;;7.90;2.10;;;18.30;86.00;;;;;;5042497;28;20561;-85
2021/07/29 09:45:59;;;;;;;7.65;2.60;;;18.30;86.20;;;;;;5026872;28;20416;-84
2021/07/29 09:48:26;;;;;;;8.88;2.33;;;18.30;86.20;;;;;;5045749;28;20029;-82
2021/07/29 09:50:58;;;;;;;11.25;2.83;;;18.20;87.30;;;;;;5033997;28;20036;-83
2021/07/29 09:53:30;;;;;;;8.15;2.70;;;18.20;87.60;;;;;;5046067;28;20104;-83
2021/07/29 09:55:56;;;;;;;10.68;2.22;;;18.10;87.60;;;;;;5027359;28;20029;-81
2021/07/29 09:58:21;;;;;;;8.57;2.13;;;18.10;87.90;;;;;;5030578;28;20215;-82
2021/07/29 10:00:47;;;;;;;8.27;2.55;;;18.20;85.90;;;;;;4999205;28;20040;-86
2021/07/29 10:03:15;;;;;;;11.38;2.30;;;18.30;85.30;;;;;;5021786;28;20409;-82
2021/07/29 10:05:51;;;;;;;5.45;1.92;;;18.30;84.60;;;;;;5001267;28;20136;-81
2021/07/29 10:08:33;;;;;;;10.15;2.85;;;18.40;85.90;;;;;;5033829;28;20102;-83
2021/07/29 10:11:00;;;;;;;10.50;2.67;;;18.40;85.60;;;;;;5022448;28;20033;-84
2021/07/29 10:13:40;;;;;;;12.15;2.35;;;18.40;85.10;;;;;;5032122;28;20039;-82
2021/07/29 10:16:07;;;;;;;9.68;2.60;;;18.40;82.50;;;;;;5027092;28;20252;-82
2021/07/29 10:18:52;;;;;;;9.07;2.67;;;18.30;83.50;;;;;;4997763;28;20037;-83
2021/07/29 10:21:21;;;;;;;9.25;2.15;;;18.30;84.50;;;;;;5032957;28;20038;-84
2021/07/29 10:23:56;;;;;;;8.68;2.33;;;18.20;83.90;;;;;;5016432;28;20055;-83
2021/07/29 10:26:23;;;;;;;9.70;2.35;;;18.10;84.30;;;;;;5004555;28;20081;-85
2021/07/29 10:28:49;;;;;;;11.02;2.28;;;18.00;82.70;;;;;;5033949;28;20025;-83
2021/07/29 10:31:19;;;;;;;7.18;1.90;;;18.10;83.20;;;;;;5013908;28;20045;-83
2021/07/29 10:33:48;;;;;;;9.25;1.92;;;18.30;83.10;;;;;;5015239;28;20091;-84
2021/07/29 10:36:43;;;;;;;6.07;1.98;;;18.40;83.40;;;;;;5023300;28;20040;-85
2021/07/29 10:39:09;;;;;;;9.98;2.40;;;18.50;83.10;;;;;;5041106;28;20056;-84
2021/07/29 10:41:42;;;;;;;8.32;1.90;;;18.50;82.90;;;;;;5028338;28;20050;-82
2021/07/29 10:44:12;;;;;;;9.35;1.98;;;18.50;81.50;;;;;;5053489;28;20082;-83
2021/07/29 10:47:01;;;;;;;8.75;2.58;;;18.50;81.60;;;;;;5048119;28;20040;-83
2021/07/29 10:49:50;;;;;;;7.47;2.10;;;18.50;81.30;;;;;;5043937;28;20052;-84
2021/07/29 10:52:16;;;;;;;9.93;1.98;;;18.60;82.40;;;;;;5021091;28;20042;-82
2021/07/29 10:54:45;;;;;;;7.50;2.10;;;18.70;81.20;;;;;;5033198;28;20388;-85
2021/07/29 10:57:12;;;;;;;9.30;2.42;;;18.70;79.80;;;;;;5022835;28;20033;-84
2021/07/29 10:59:39;;;;;;;8.50;2.20;;;18.70;80.30;;;;;;5047171;28;20123;-82
2021/07/29 11:02:09;;;;;;;8.13;2.20;;;18.60;81.20;;;;;;5008215;28;20061;-81
2021/07/29 11:04:51;;;;;;;9.80;2.20;;;18.70;81.40;;;;;;5032771;28;20047;-84
2021/07/29 11:07:19;;;;;;;6.15;1.58;;;18.80;82.80;;;;;;5027529;28;20112;-84
2021/07/29 11:09:45;;;;;;;8.63;2.33;;;18.90;81.40;;;;;;5040876;28;20037;-83
2021/07/29 11:12:17;;;;;;;12.75;2.47;;;18.90;80.20;;;;;;5044055;28;20443;-83
2021/07/29 11:14:43;;;;;;;7.85;2.28;;;18.80;79.90;;;;;;5012824;28;20025;-85
2021/07/29 11:17:09;;;;;;;10.43;2.40;;;18.70;81.00;;;;;;5038419;28;20032;-82
2021/07/29 11:19:43;;;;;;;11.70;2.17;;;18.60;79.40;;;;;;5025993;28;20038;-83
2021/07/29 11:24:38;;;;;;;9.88;2.60;;;18.60;79.20;;;;;;5052390;28;20155;-83
2021/07/29 11:27:07;;;;;;;12.35;2.92;;;18.70;80.80;;;;;;5041375;28;20029;-83
2021/07/29 11:29:33;;;;;;;10.38;2.40;;;18.80;80.80;;;;;;5058958;28;20104;-83
2021/07/29 11:31:59;;;;;;;11.50;2.40;;;18.90;80.10;;;;;;5035622;28;20040;-82
2021/07/29 11:34:33;;;;;;;6.03;2.28;;;18.90;79.90;;;;;;4998251;28;20030;-83
2021/07/29 11:36:59;;;;;;;7.03;2.33;;;18.80;80.00;;;;;;5019980;28;20033;-82
2021/07/29 11:39:34;;;;;;;6.45;2.50;;;18.70;80.40;;;;;;4988635;28;20136;-83
2021/07/29 11:42:00;;;;;;;8.27;2.25;;;18.60;80.90;;;;;;5032911;28;20097;-83
2021/07/29 11:44:39;;;;;;;8.20;2.92;;;18.50;81.90;;;;;;5037105;28;20053;-83
2021/07/29 11:47:05;;;;;;;9.45;2.53;;;18.40;82.10;;;;;;5042442;28;20034;-84
2021/07/29 11:49:31;;;;;;;5.55;2.33;;;18.40;82.00;;;;;;5040823;28;20476;-83
2021/07/29 11:52:11;;;;;;;8.40;2.33;;;18.40;82.40;;;;;;5033252;28;20219;-83
2021/07/29 11:54:37;;;;;;;12.75;2.30;;;18.30;80.70;;;;;;5018853;28;20031;-84
2021/07/29 11:57:04;;;;;;;8.15;2.00;;;18.40;80.90;;;;;;5032617;28;20056;-83
2021/07/29 11:59:41;;;;;;;9.52;2.22;;;18.40;80.50;;;;;;5016758;28;20048;-84
2021/07/29 12:02:09;;;;;;;8.60;2.22;;;18.60;80.70;;;;;;5015995;28;20033;-83
2021/07/29 12:04:41;;;;;;;12.27;2.00;;;18.70;79.90;;;;;;5033579;28;20048;-85
2021/07/29 12:07:13;;;;;;;6.15;2.28;;;18.90;78.50;;;;;;5028108;28;20029;-84
2021/07/29 12:09:44;;;;;;;8.48;2.67;;;18.90;77.90;;;;;;5031617;28;20403;-84
2021/07/29 12:12:15;;;;;;;11.73;2.78;;;18.80;78.70;;;;;;5024719;28;20048;-83
2021/07/29 12:14:45;;;;;;;8.60;2.25;;;18.70;79.20;;;;;;5019916;28;20029;-82
2021/07/29 12:17:21;;;;;;;10.57;2.75;;;18.60;80.20;;;;;;5015417;28;20085;-83
2021/07/29 12:19:58;;;;;;;11.93;2.63;;;18.50;80.60;;;;;;5039552;28;20427;-87
2021/07/29 12:22:29;;;;;;;12.05;2.42;;;18.50;82.50;;;;;;5016367;28;20034;-82
2021/07/29 12:24:56;;;;;;;13.77;2.72;;;18.70;81.30;;;;;;5027250;28;20164;-83
2021/07/29 12:27:24;;;;;;;8.20;2.50;;;18.90;80.10;;;;;;5016724;28;20041;-84
2021/07/29 12:29:50;;;;;;;9.95;2.38;;;19.10;78.90;;;;;;5016608;28;20030;-85
2021/07/29 12:32:31;;;;;;;5.10;1.88;;;19.30;76.60;;;;;;5036499;28;20484;-86
2021/07/29 12:34:57;;;;;;;11.57;2.50;;;19.60;75.10;;;;;;5034439;28;20488;-83
2021/07/29 12:37:33;;;;;;;7.80;1.90;;;19.70;74.20;;;;;;5035668;28;20487;-85
2021/07/29 12:39:59;;;;;;;12.80;2.50;;;19.60;74.60;;;;;;5017026;28;20044;-84
2021/07/29 12:42:27;;;;;;;12.18;2.50;;;19.60;74.20;;;;;;5020029;28;20037;-82
2021/07/29 12:44:59;;;;;;;6.93;2.00;;;19.60;74.30;;;;;;5031114;28;20121;-84
2021/07/29 12:47:26;;;;;;;6.20;1.83;;;19.40;73.90;;;;;;5016230;28;20033;-84
2021/07/29 12:49:53;;;;;;;6.43;1.90;;;19.30;74.80;;;;;;5026285;28;20045;-84
2021/07/29 12:52:20;;;;;;;5.18;1.75;;;19.30;74.60;;;;;;5038766;28;20045;-83
2021/07/29 12:55:00;;;;;;;7.05;1.80;;;19.30;75.20;;;;;;5025425;28;20061;-82
2021/07/29 12:57:27;;;;;;;9.95;2.20;;;19.20;74.20;;;;;;5014800;28;20101;-85
2021/07/29 12:59:53;;;;;;;6.80;2.15;;;19.20;75.80;;;;;;5026513;28;20113;-85
2021/07/29 13:02:18;;;;;;;6.80;2.10;;;19.20;75.80;;;;;;5010327;28;20075;-86